sensor_id;sensor_type;location;lat;lon;timestamp;P1;durP1;ratioP1;P2;durP2;ratioP2
48861;SDS011;34681;49.188;-0.374;2023-05-29T00:00:22;17.90;;;8.60;;
48861;SDS011;34681;49.188;-0.374;2023-05-29T00:02:48;17.80;;;8.53;;
48861;SDS011;34681;49.188;-0.374;2023-05-29T00:05:15;19.10;;;8.03;;
48861;SDS011;34681;49.188;-0.374;2023-05-29T00:07:41;21.40;;;7.80;;
48861;SDS011;34681;49.188;-0.374;2023-05-29T00:10:07;18.90;;;9.03;;
48861;SDS011;34681;49.188;-0.374;2023-05-29T00:12:33;19.83;;;10.07;;
48861;SDS011;34681;49.188;-0.374;2023-05-29T00:15:00;22.90;;;9.20;;
48861;SDS011;34681;49.188;-0.374;2023-05-29T00:17:25;17.27;;;8.10;;
48861;SDS011;34681;49.188;-0.374;2023-05-29T00:19:51;21.57;;;9.73;;
48861;SDS011;34681;49.188;-0.374;2023-05-29T00:22:16;18.33;;;9.17;;
48861;SDS011;34681;49.188;-0.374;2023-05-29T00:24:42;22.80;;;9.70;;
48861;SDS011;34681;49.188;-0.374;2023-05-29T00:27:08;18.47;;;8.60;;
48861;SDS011;34681;49.188;-0.374;2023-05-29T00:29:34;21.20;;;8.73;;
48861;SDS011;34681;49.188;-0.374;2023-05-29T00:32:01;15.20;;;8.47;;
48861;SDS011;34681;49.188;-0.374;2023-05-29T00:34:27;20.93;;;8.70;;
48861;SDS011;34681;49.188;-0.374;2023-05-29T00:36:52;21.00;;;8.57;;
48861;SDS011;34681;49.188;-0.374;2023-05-29T00:39:19;18.70;;;8.53;;
48861;SDS011;34681;49.188;-0.374;2023-05-29T00:41:45;21.73;;;8.57;;
48861;SDS011;34681;49.188;-0.374;2023-05-29T00:44:10;22.67;;;7.87;;
48861;SDS011;34681;49.188;-0.374;2023-05-29T00:46:36;20.00;;;8.17;;
48861;SDS011;34681;49.188;-0.374;2023-05-29T00:49:01;17.23;;;9.00;;
48861;SDS011;34681;49.188;-0.374;2023-05-29T00:51:27;20.40;;;8.43;;
48861;SDS011;34681;49.188;-0.374;2023-05-29T00:53:54;20.47;;;7.87;;
48861;SDS011;34681;49.188;-0.374;2023-05-29T00:56:20;21.23;;;7.33;;
48861;SDS011;34681;49.188;-0.374;2023-05-29T00:58:50;9.87;;;6.90;;
48861;SDS011;34681;49.188;-0.374;2023-05-29T01:01:17;12.83;;;7.30;;
48861;SDS011;34681;49.188;-0.374;2023-05-29T01:03:43;13.90;;;7.63;;
48861;SDS011;34681;49.188;-0.374;2023-05-29T01:06:09;15.80;;;7.40;;
48861;SDS011;34681;49.188;-0.374;2023-05-29T01:08:35;17.63;;;7.50;;
48861;SDS011;34681;49.188;-0.374;2023-05-29T01:11:03;17.23;;;7.63;;
48861;SDS011;34681;49.188;-0.374;2023-05-29T01:13:34;18.73;;;7.00;;
48861;SDS011;34681;49.188;-0.374;2023-05-29T01:16:04;13.27;;;6.87;;
48861;SDS011;34681;49.188;-0.374;2023-05-29T01:24:32;11.00;;;6.47;;
48861;SDS011;34681;49.188;-0.374;2023-05-29T01:27:03;19.77;;;7.10;;
48861;SDS011;34681;49.188;-0.374;2023-05-29T01:29:32;14.60;;;6.93;;
48861;SDS011;34681;49.188;-0.374;2023-05-29T01:31:59;12.33;;;6.67;;
48861;SDS011;34681;49.188;-0.374;2023-05-29T01:34:27;9.93;;;5.63;;
48861;SDS011;34681;49.188;-0.374;2023-05-29T01:36:52;18.30;;;7.60;;
48861;SDS011;34681;49.188;-0.374;2023-05-29T01:39:17;14.33;;;6.70;;
48861;SDS011;34681;49.188;-0.374;2023-05-29T01:41:44;13.07;;;6.60;;
48861;SDS011;34681;49.188;-0.374;2023-05-29T01:44:11;16.17;;;8.23;;
48861;SDS011;34681;49.188;-0.374;2023-05-29T01:46:38;17.30;;;7.70;;
48861;SDS011;34681;49.188;-0.374;2023-05-29T01:49:05;14.33;;;6.40;;
48861;SDS011;34681;49.188;-0.374;2023-05-29T01:51:32;18.20;;;7.73;;
48861;SDS011;34681;49.188;-0.374;2023-05-29T01:53:58;17.77;;;8.50;;
48861;SDS011;34681;49.188;-0.374;2023-05-29T01:56:27;21.80;;;8.13;;
48861;SDS011;34681;49.188;-0.374;2023-05-29T01:58:54;27.23;;;9.93;;
48861;SDS011;34681;49.188;-0.374;2023-05-29T02:01:21;28.57;;;8.57;;
48861;SDS011;34681;49.188;-0.374;2023-05-29T02:03:46;23.80;;;9.53;;
48861;SDS011;34681;49.188;-0.374;2023-05-29T02:06:12;28.60;;;11.17;;
48861;SDS011;34681;49.188;-0.374;2023-05-29T02:08:37;22.10;;;8.50;;
48861;SDS011;34681;49.188;-0.374;2023-05-29T02:11:03;30.40;;;10.07;;
48861;SDS011;34681;49.188;-0.374;2023-05-29T02:13:28;22.00;;;10.57;;
48861;SDS011;34681;49.188;-0.374;2023-05-29T02:15:54;20.37;;;10.03;;
48861;SDS011;34681;49.188;-0.374;2023-05-29T02:18:20;25.70;;;9.17;;
48861;SDS011;34681;49.188;-0.374;2023-05-29T02:20:45;18.97;;;9.63;;
48861;SDS011;34681;49.188;-0.374;2023-05-29T02:23:11;20.03;;;8.80;;
48861;SDS011;34681;49.188;-0.374;2023-05-29T02:25:37;15.73;;;7.70;;
48861;SDS011;34681;49.188;-0.374;2023-05-29T02:28:03;20.70;;;8.90;;
48861;SDS011;34681;49.188;-0.374;2023-05-29T02:30:29;19.23;;;9.20;;
48861;SDS011;34681;49.188;-0.374;2023-05-29T02:32:54;20.17;;;9.03;;
48861;SDS011;34681;49.188;-0.374;2023-05-29T02:35:20;23.97;;;8.97;;
48861;SDS011;34681;49.188;-0.374;2023-05-29T02:37:47;19.93;;;9.10;;
48861;SDS011;34681;49.188;-0.374;2023-05-29T02:40:13;22.90;;;10.83;;
48861;SDS011;34681;49.188;-0.374;2023-05-29T02:42:38;18.57;;;9.73;;
48861;SDS011;34681;49.188;-0.374;2023-05-29T02:45:04;13.50;;;8.40;;
48861;SDS011;34681;49.188;-0.374;2023-05-29T02:47:30;13.47;;;7.57;;
48861;SDS011;34681;49.188;-0.374;2023-05-29T02:49:55;14.37;;;8.10;;
48861;SDS011;34681;49.188;-0.374;2023-05-29T02:52:20;21.10;;;8.77;;
48861;SDS011;34681;49.188;-0.374;2023-05-29T02:54:48;20.37;;;8.80;;
48861;SDS011;34681;49.188;-0.374;2023-05-29T02:57:13;17.20;;;8.03;;
48861;SDS011;34681;49.188;-0.374;2023-05-29T02:59:39;16.83;;;7.63;;
48861;SDS011;34681;49.188;-0.374;2023-05-29T03:02:04;14.70;;;7.77;;
48861;SDS011;34681;49.188;-0.374;2023-05-29T03:04:30;29.30;;;8.90;;
48861;SDS011;34681;49.188;-0.374;2023-05-29T03:06:55;23.43;;;9.17;;
48861;SDS011;34681;49.188;-0.374;2023-05-29T03:09:20;20.53;;;8.90;;
48861;SDS011;34681;49.188;-0.374;2023-05-29T03:11:46;18.30;;;7.93;;
48861;SDS011;34681;49.188;-0.374;2023-05-29T03:14:14;20.13;;;8.60;;
48861;SDS011;34681;49.188;-0.374;2023-05-29T03:16:40;15.90;;;8.10;;
48861;SDS011;34681;49.188;-0.374;2023-05-29T03:19:05;20.97;;;8.50;;
48861;SDS011;34681;49.188;-0.374;2023-05-29T03:21:32;21.67;;;8.40;;
48861;SDS011;34681;49.188;-0.374;2023-05-29T03:23:58;23.27;;;9.77;;
48861;SDS011;34681;49.188;-0.374;2023-05-29T03:26:23;21.47;;;8.17;;
48861;SDS011;34681;49.188;-0.374;2023-05-29T03:28:49;17.97;;;7.57;;
48861;SDS011;34681;49.188;-0.374;2023-05-29T03:31:14;21.10;;;9.03;;
48861;SDS011;34681;49.188;-0.374;2023-05-29T03:33:39;22.50;;;9.67;;
48861;SDS011;34681;49.188;-0.374;2023-05-29T03:36:05;21.47;;;9.67;;
48861;SDS011;34681;49.188;-0.374;2023-05-29T03:38:32;20.67;;;9.03;;
48861;SDS011;34681;49.188;-0.374;2023-05-29T03:40:58;16.70;;;10.10;;
48861;SDS011;34681;49.188;-0.374;2023-05-29T03:43:23;18.47;;;8.17;;
48861;SDS011;34681;49.188;-0.374;2023-05-29T03:45:48;25.27;;;9.10;;
48861;SDS011;34681;49.188;-0.374;2023-05-29T03:48:14;22.77;;;10.13;;
48861;SDS011;34681;49.188;-0.374;2023-05-29T03:50:40;18.40;;;9.03;;
48861;SDS011;34681;49.188;-0.374;2023-05-29T03:53:05;19.83;;;10.73;;
48861;SDS011;34681;49.188;-0.374;2023-05-29T03:55:31;24.40;;;9.80;;
48861;SDS011;34681;49.188;-0.374;2023-05-29T03:57:56;23.90;;;8.93;;
48861;SDS011;34681;49.188;-0.374;2023-05-29T04:00:22;23.47;;;9.47;;
48861;SDS011;34681;49.188;-0.374;2023-05-29T04:02:47;16.37;;;10.60;;
48861;SDS011;34681;49.188;-0.374;2023-05-29T04:05:13;23.23;;;10.83;;
48861;SDS011;34681;49.188;-0.374;2023-05-29T04:07:38;31.60;;;10.07;;
48861;SDS011;34681;49.188;-0.374;2023-05-29T04:10:04;24.67;;;10.10;;
48861;SDS011;34681;49.188;-0.374;2023-05-29T04:12:30;24.20;;;11.10;;
48861;SDS011;34681;49.188;-0.374;2023-05-29T04:14:56;26.43;;;12.10;;
48861;SDS011;34681;49.188;-0.374;2023-05-29T04:17:22;22.43;;;10.63;;
48861;SDS011;34681;49.188;-0.374;2023-05-29T04:19:47;25.30;;;11.23;;
48861;SDS011;34681;49.188;-0.374;2023-05-29T04:22:12;25.33;;;13.07;;
48861;SDS011;34681;49.188;-0.374;2023-05-29T04:24:38;18.80;;;12.03;;
48861;SDS011;34681;49.188;-0.374;2023-05-29T04:27:03;30.50;;;12.23;;
48861;SDS011;34681;49.188;-0.374;2023-05-29T04:29:29;22.93;;;10.70;;
48861;SDS011;34681;49.188;-0.374;2023-05-29T04:31:55;21.57;;;11.37;;
48861;SDS011;34681;49.188;-0.374;2023-05-29T04:34:21;25.43;;;14.77;;
48861;SDS011;34681;49.188;-0.374;2023-05-29T04:36:46;19.53;;;11.40;;
48861;SDS011;34681;49.188;-0.374;2023-05-29T04:39:13;25.47;;;12.37;;
48861;SDS011;34681;49.188;-0.374;2023-05-29T04:41:39;23.93;;;11.73;;
48861;SDS011;34681;49.188;-0.374;2023-05-29T04:44:08;31.93;;;14.20;;
48861;SDS011;34681;49.188;-0.374;2023-05-29T04:46:36;23.93;;;14.27;;
48861;SDS011;34681;49.188;-0.374;2023-05-29T04:49:03;24.00;;;13.30;;
48861;SDS011;34681;49.188;-0.374;2023-05-29T04:51:29;23.87;;;12.63;;
48861;SDS011;34681;49.188;-0.374;2023-05-29T04:53:55;27.50;;;14.17;;
48861;SDS011;34681;49.188;-0.374;2023-05-29T04:56:21;25.53;;;13.47;;
48861;SDS011;34681;49.188;-0.374;2023-05-29T04:58:47;27.60;;;13.63;;
48861;SDS011;34681;49.188;-0.374;2023-05-29T05:01:12;33.03;;;15.67;;
48861;SDS011;34681;49.188;-0.374;2023-05-29T05:03:42;24.10;;;16.30;;
48861;SDS011;34681;49.188;-0.374;2023-05-29T05:06:08;28.20;;;15.83;;
48861;SDS011;34681;49.188;-0.374;2023-05-29T05:08:34;27.77;;;14.07;;
48861;SDS011;34681;49.188;-0.374;2023-05-29T05:11:00;28.70;;;16.30;;
48861;SDS011;34681;49.188;-0.374;2023-05-29T05:13:26;27.37;;;16.97;;
48861;SDS011;34681;49.188;-0.374;2023-05-29T05:15:52;29.90;;;15.70;;
48861;SDS011;34681;49.188;-0.374;2023-05-29T05:18:18;26.27;;;15.67;;
48861;SDS011;34681;49.188;-0.374;2023-05-29T05:20:43;27.60;;;16.33;;
48861;SDS011;34681;49.188;-0.374;2023-05-29T05:23:09;23.00;;;14.50;;
48861;SDS011;34681;49.188;-0.374;2023-05-29T05:25:35;29.73;;;17.37;;
48861;SDS011;34681;49.188;-0.374;2023-05-29T05:28:01;23.70;;;17.40;;
48861;SDS011;34681;49.188;-0.374;2023-05-29T05:30:28;25.97;;;15.77;;
48861;SDS011;34681;49.188;-0.374;2023-05-29T05:32:53;25.50;;;15.67;;
48861;SDS011;34681;49.188;-0.374;2023-05-29T05:35:18;27.77;;;16.60;;
48861;SDS011;34681;49.188;-0.374;2023-05-29T05:37:44;24.73;;;13.00;;
48861;SDS011;34681;49.188;-0.374;2023-05-29T05:40:09;30.93;;;15.37;;
48861;SDS011;34681;49.188;-0.374;2023-05-29T05:42:35;19.93;;;13.30;;
48861;SDS011;34681;49.188;-0.374;2023-05-29T05:45:00;23.63;;;13.10;;
48861;SDS011;34681;49.188;-0.374;2023-05-29T05:47:26;17.70;;;12.70;;
48861;SDS011;34681;49.188;-0.374;2023-05-29T05:49:53;27.37;;;13.03;;
48861;SDS011;34681;49.188;-0.374;2023-05-29T05:52:19;18.47;;;12.70;;
48861;SDS011;34681;49.188;-0.374;2023-05-29T05:54:44;28.97;;;13.63;;
48861;SDS011;34681;49.188;-0.374;2023-05-29T05:57:10;27.50;;;12.40;;
48861;SDS011;34681;49.188;-0.374;2023-05-29T05:59:36;22.93;;;11.10;;
48861;SDS011;34681;49.188;-0.374;2023-05-29T06:02:01;20.53;;;10.97;;
48861;SDS011;34681;49.188;-0.374;2023-05-29T06:04:28;26.90;;;10.90;;
48861;SDS011;34681;49.188;-0.374;2023-05-29T06:06:54;20.67;;;9.20;;
48861;SDS011;34681;49.188;-0.374;2023-05-29T06:09:20;27.97;;;11.10;;
48861;SDS011;34681;49.188;-0.374;2023-05-29T06:11:45;22.30;;;10.93;;
48861;SDS011;34681;49.188;-0.374;2023-05-29T06:14:11;21.47;;;9.50;;
48861;SDS011;34681;49.188;-0.374;2023-05-29T06:16:36;22.10;;;10.40;;
48861;SDS011;34681;49.188;-0.374;2023-05-29T06:19:02;26.60;;;10.70;;
48861;SDS011;34681;49.188;-0.374;2023-05-29T06:21:27;18.50;;;10.30;;
48861;SDS011;34681;49.188;-0.374;2023-05-29T06:23:53;20.43;;;10.97;;
48861;SDS011;34681;49.188;-0.374;2023-05-29T06:26:18;20.87;;;10.70;;
48861;SDS011;34681;49.188;-0.374;2023-05-29T06:28:44;20.60;;;8.90;;
48861;SDS011;34681;49.188;-0.374;2023-05-29T06:31:09;17.03;;;9.60;;
48861;SDS011;34681;49.188;-0.374;2023-05-29T06:33:35;16.73;;;8.50;;
48861;SDS011;34681;49.188;-0.374;2023-05-29T06:36:01;17.70;;;9.27;;
48861;SDS011;34681;49.188;-0.374;2023-05-29T06:38:26;18.93;;;8.37;;
48861;SDS011;34681;49.188;-0.374;2023-05-29T06:40:52;22.07;;;8.13;;
48861;SDS011;34681;49.188;-0.374;2023-05-29T06:43:17;14.70;;;9.33;;
48861;SDS011;34681;49.188;-0.374;2023-05-29T06:45:42;19.37;;;9.50;;
48861;SDS011;34681;49.188;-0.374;2023-05-29T06:48:08;17.40;;;8.23;;
48861;SDS011;34681;49.188;-0.374;2023-05-29T06:50:33;24.77;;;9.87;;
48861;SDS011;34681;49.188;-0.374;2023-05-29T06:52:59;17.13;;;7.90;;
48861;SDS011;34681;49.188;-0.374;2023-05-29T06:55:24;22.00;;;8.40;;
48861;SDS011;34681;49.188;-0.374;2023-05-29T06:57:49;15.13;;;7.83;;
48861;SDS011;34681;49.188;-0.374;2023-05-29T07:00:15;20.27;;;9.07;;
48861;SDS011;34681;49.188;-0.374;2023-05-29T07:02:41;24.60;;;10.20;;
48861;SDS011;34681;49.188;-0.374;2023-05-29T07:05:06;16.30;;;10.37;;
48861;SDS011;34681;49.188;-0.374;2023-05-29T07:07:32;22.70;;;10.30;;
48861;SDS011;34681;49.188;-0.374;2023-05-29T07:09:57;17.97;;;8.27;;
48861;SDS011;34681;49.188;-0.374;2023-05-29T07:12:23;23.73;;;7.50;;
48861;SDS011;34681;49.188;-0.374;2023-05-29T07:14:48;13.43;;;7.00;;
48861;SDS011;34681;49.188;-0.374;2023-05-29T07:17:14;17.83;;;7.87;;
48861;SDS011;34681;49.188;-0.374;2023-05-29T07:19:40;21.90;;;7.90;;
48861;SDS011;34681;49.188;-0.374;2023-05-29T07:22:06;16.73;;;9.50;;
48861;SDS011;34681;49.188;-0.374;2023-05-29T07:24:31;16.03;;;8.23;;
48861;SDS011;34681;49.188;-0.374;2023-05-29T07:26:56;14.47;;;7.37;;
48861;SDS011;34681;49.188;-0.374;2023-05-29T07:29:22;17.77;;;8.23;;
48861;SDS011;34681;49.188;-0.374;2023-05-29T07:31:48;22.50;;;9.10;;
48861;SDS011;34681;49.188;-0.374;2023-05-29T07:34:14;15.73;;;9.73;;
48861;SDS011;34681;49.188;-0.374;2023-05-29T07:36:55;21.00;;;9.93;;
48861;SDS011;34681;49.188;-0.374;2023-05-29T07:39:27;15.87;;;9.83;;
48861;SDS011;34681;49.188;-0.374;2023-05-29T07:41:53;13.87;;;9.60;;
48861;SDS011;34681;49.188;-0.374;2023-05-29T07:44:19;20.00;;;10.13;;
48861;SDS011;34681;49.188;-0.374;2023-05-29T07:46:45;18.03;;;9.50;;
48861;SDS011;34681;49.188;-0.374;2023-05-29T07:49:10;15.97;;;9.03;;
48861;SDS011;34681;49.188;-0.374;2023-05-29T07:51:36;21.37;;;10.20;;
48861;SDS011;34681;49.188;-0.374;2023-05-29T07:54:01;15.83;;;10.00;;
48861;SDS011;34681;49.188;-0.374;2023-05-29T07:56:27;17.33;;;10.40;;
48861;SDS011;34681;49.188;-0.374;2023-05-29T07:58:52;16.87;;;10.37;;
48861;SDS011;34681;49.188;-0.374;2023-05-29T08:01:20;15.67;;;10.87;;
48861;SDS011;34681;49.188;-0.374;2023-05-29T08:03:46;19.00;;;10.30;;
48861;SDS011;34681;49.188;-0.374;2023-05-29T08:06:12;17.13;;;9.53;;
48861;SDS011;34681;49.188;-0.374;2023-05-29T08:08:38;13.77;;;7.80;;
48861;SDS011;34681;49.188;-0.374;2023-05-29T08:11:03;17.80;;;7.63;;
48861;SDS011;34681;49.188;-0.374;2023-05-29T08:13:29;12.00;;;7.20;;
48861;SDS011;34681;49.188;-0.374;2023-05-29T08:15:55;16.20;;;6.93;;
48861;SDS011;34681;49.188;-0.374;2023-05-29T08:18:21;9.40;;;6.10;;
48861;SDS011;34681;49.188;-0.374;2023-05-29T08:20:46;11.03;;;6.97;;
48861;SDS011;34681;49.188;-0.374;2023-05-29T08:23:12;12.47;;;7.47;;
48861;SDS011;34681;49.188;-0.374;2023-05-29T08:25:37;13.97;;;7.67;;
48861;SDS011;34681;49.188;-0.374;2023-05-29T08:28:03;11.90;;;7.40;;
48861;SDS011;34681;49.188;-0.374;2023-05-29T08:30:28;12.83;;;7.53;;
48861;SDS011;34681;49.188;-0.374;2023-05-29T08:32:53;8.87;;;6.33;;
48861;SDS011;34681;49.188;-0.374;2023-05-29T08:35:19;13.23;;;6.73;;
48861;SDS011;34681;49.188;-0.374;2023-05-29T08:37:44;17.73;;;7.70;;
48861;SDS011;34681;49.188;-0.374;2023-05-29T08:40:10;12.67;;;7.17;;
48861;SDS011;34681;49.188;-0.374;2023-05-29T08:42:39;15.07;;;6.87;;
48861;SDS011;34681;49.188;-0.374;2023-05-29T08:45:13;13.33;;;6.53;;
48861;SDS011;34681;49.188;-0.374;2023-05-29T08:47:40;11.07;;;6.93;;
48861;SDS011;34681;49.188;-0.374;2023-05-29T08:50:06;15.93;;;7.30;;
48861;SDS011;34681;49.188;-0.374;2023-05-29T08:52:33;11.10;;;7.03;;
48861;SDS011;34681;49.188;-0.374;2023-05-29T08:55:03;12.27;;;7.07;;
48861;SDS011;34681;49.188;-0.374;2023-05-29T08:57:29;20.03;;;8.97;;
48861;SDS011;34681;49.188;-0.374;2023-05-29T08:59:55;12.67;;;7.77;;
48861;SDS011;34681;49.188;-0.374;2023-05-29T09:02:21;18.87;;;8.30;;
48861;SDS011;34681;49.188;-0.374;2023-05-29T09:04:47;16.63;;;7.77;;
48861;SDS011;34681;49.188;-0.374;2023-05-29T09:07:17;15.40;;;7.60;;
48861;SDS011;34681;49.188;-0.374;2023-05-29T09:09:44;9.47;;;6.50;;
48861;SDS011;34681;49.188;-0.374;2023-05-29T09:12:11;14.33;;;7.60;;
48861;SDS011;34681;49.188;-0.374;2023-05-29T09:14:42;16.37;;;7.40;;
48861;SDS011;34681;49.188;-0.374;2023-05-29T09:17:09;16.60;;;7.33;;
48861;SDS011;34681;49.188;-0.374;2023-05-29T09:19:36;10.67;;;6.67;;
48861;SDS011;34681;49.188;-0.374;2023-05-29T09:22:07;17.83;;;6.83;;
48861;SDS011;34681;49.188;-0.374;2023-05-29T09:24:35;13.70;;;6.40;;
48861;SDS011;34681;49.188;-0.374;2023-05-29T09:27:02;19.00;;;7.27;;
48861;SDS011;34681;49.188;-0.374;2023-05-29T09:29:42;14.37;;;5.47;;
48861;SDS011;34681;49.188;-0.374;2023-05-29T09:32:09;14.00;;;6.50;;
48861;SDS011;34681;49.188;-0.374;2023-05-29T09:34:38;13.90;;;6.73;;
48861;SDS011;34681;49.188;-0.374;2023-05-29T09:37:05;12.03;;;5.63;;
48861;SDS011;34681;49.188;-0.374;2023-05-29T09:39:55;13.33;;;6.13;;
48861;SDS011;34681;49.188;-0.374;2023-05-29T09:42:19;9.10;;;5.10;;
48861;SDS011;34681;49.188;-0.374;2023-05-29T09:44:46;13.07;;;5.87;;
48861;SDS011;34681;49.188;-0.374;2023-05-29T09:47:16;10.27;;;6.20;;
48861;SDS011;34681;49.188;-0.374;2023-05-29T09:49:42;13.17;;;5.63;;
48861;SDS011;34681;49.188;-0.374;2023-05-29T09:52:10;11.27;;;5.57;;
48861;SDS011;34681;49.188;-0.374;2023-05-29T09:54:40;13.90;;;5.80;;
48861;SDS011;34681;49.188;-0.374;2023-05-29T09:57:07;19.73;;;6.20;;
48861;SDS011;34681;49.188;-0.374;2023-05-29T09:59:34;17.47;;;6.00;;
48861;SDS011;34681;49.188;-0.374;2023-05-29T10:02:02;17.13;;;5.90;;
48861;SDS011;34681;49.188;-0.374;2023-05-29T10:04:32;15.87;;;5.83;;
48861;SDS011;34681;49.188;-0.374;2023-05-29T10:07:05;14.47;;;5.63;;
48861;SDS011;34681;49.188;-0.374;2023-05-29T10:09:41;15.43;;;7.50;;
48861;SDS011;34681;49.188;-0.374;2023-05-29T10:12:09;15.80;;;5.07;;
48861;SDS011;34681;49.188;-0.374;2023-05-29T10:14:36;12.93;;;5.50;;
48861;SDS011;34681;49.188;-0.374;2023-05-29T10:17:03;11.67;;;6.00;;
48861;SDS011;34681;49.188;-0.374;2023-05-29T10:19:33;18.90;;;6.80;;
48861;SDS011;34681;49.188;-0.374;2023-05-29T10:22:01;16.67;;;6.60;;
48861;SDS011;34681;49.188;-0.374;2023-05-29T10:24:28;18.93;;;6.83;;
48861;SDS011;34681;49.188;-0.374;2023-05-29T10:26:56;13.37;;;7.20;;
48861;SDS011;34681;49.188;-0.374;2023-05-29T10:29:27;20.73;;;6.77;;
48861;SDS011;34681;49.188;-0.374;2023-05-29T10:32:01;14.43;;;5.20;;
48861;SDS011;34681;49.188;-0.374;2023-05-29T10:34:39;17.57;;;5.40;;
48861;SDS011;34681;49.188;-0.374;2023-05-29T10:37:16;16.90;;;5.60;;
48861;SDS011;34681;49.188;-0.374;2023-05-29T10:39:51;28.30;;;5.87;;
48861;SDS011;34681;49.188;-0.374;2023-05-29T10:45:03;14.90;;;5.20;;
48861;SDS011;34681;49.188;-0.374;2023-05-29T10:47:29;14.97;;;5.67;;
48861;SDS011;34681;49.188;-0.374;2023-05-29T10:49:59;18.93;;;5.67;;
48861;SDS011;34681;49.188;-0.374;2023-05-29T10:52:25;18.40;;;5.83;;
48861;SDS011;34681;49.188;-0.374;2023-05-29T10:54:52;15.73;;;5.53;;
48861;SDS011;34681;49.188;-0.374;2023-05-29T10:57:27;13.77;;;6.23;;
48861;SDS011;34681;49.188;-0.374;2023-05-29T11:00:06;16.77;;;6.23;;
48861;SDS011;34681;49.188;-0.374;2023-05-29T11:02:54;19.13;;;5.93;;
48861;SDS011;34681;49.188;-0.374;2023-05-29T11:05:20;17.53;;;5.57;;
48861;SDS011;34681;49.188;-0.374;2023-05-29T11:13:36;13.60;;;5.23;;
48861;SDS011;34681;49.188;-0.374;2023-05-29T11:16:06;14.50;;;6.73;;
48861;SDS011;34681;49.188;-0.374;2023-05-29T11:18:42;20.70;;;5.33;;
48861;SDS011;34681;49.188;-0.374;2023-05-29T11:21:33;14.87;;;6.60;;
48861;SDS011;34681;49.188;-0.374;2023-05-29T11:23:59;13.60;;;6.30;;
48861;SDS011;34681;49.188;-0.374;2023-05-29T11:26:28;23.60;;;5.93;;
48861;SDS011;34681;49.188;-0.374;2023-05-29T11:28:56;19.30;;;5.67;;
48861;SDS011;34681;49.188;-0.374;2023-05-29T11:31:22;19.43;;;7.20;;
48861;SDS011;34681;49.188;-0.374;2023-05-29T11:33:49;19.83;;;8.90;;
48861;SDS011;34681;49.188;-0.374;2023-05-29T11:36:17;17.43;;;6.67;;
48861;SDS011;34681;49.188;-0.374;2023-05-29T11:38:46;17.40;;;7.23;;
48861;SDS011;34681;49.188;-0.374;2023-05-29T11:41:11;21.93;;;6.63;;
48861;SDS011;34681;49.188;-0.374;2023-05-29T11:43:37;22.77;;;7.00;;
48861;SDS011;34681;49.188;-0.374;2023-05-29T11:46:02;24.13;;;7.73;;
48861;SDS011;34681;49.188;-0.374;2023-05-29T11:48:27;16.27;;;6.93;;
48861;SDS011;34681;49.188;-0.374;2023-05-29T11:50:53;27.40;;;7.53;;
48861;SDS011;34681;49.188;-0.374;2023-05-29T11:53:18;38.53;;;7.67;;
48861;SDS011;34681;49.188;-0.374;2023-05-29T11:55:44;16.83;;;6.20;;
48861;SDS011;34681;49.188;-0.374;2023-05-29T11:58:09;21.00;;;7.47;;
48861;SDS011;34681;49.188;-0.374;2023-05-29T12:00:35;21.63;;;7.87;;
48861;SDS011;34681;49.188;-0.374;2023-05-29T12:03:03;18.87;;;6.63;;
48861;SDS011;34681;49.188;-0.374;2023-05-29T12:05:30;24.10;;;6.97;;
48861;SDS011;34681;49.188;-0.374;2023-05-29T12:08:09;25.23;;;7.20;;
48861;SDS011;34681;49.188;-0.374;2023-05-29T12:10:34;21.87;;;7.70;;
48861;SDS011;34681;49.188;-0.374;2023-05-29T12:13:00;14.97;;;6.10;;
48861;SDS011;34681;49.188;-0.374;2023-05-29T12:15:28;22.73;;;8.53;;
48861;SDS011;34681;49.188;-0.374;2023-05-29T12:17:54;20.50;;;6.23;;
48861;SDS011;34681;49.188;-0.374;2023-05-29T12:20:24;26.87;;;8.70;;
48861;SDS011;34681;49.188;-0.374;2023-05-29T12:22:51;23.43;;;5.33;;
48861;SDS011;34681;49.188;-0.374;2023-05-29T12:25:18;23.20;;;7.00;;
48861;SDS011;34681;49.188;-0.374;2023-05-29T12:27:46;24.70;;;6.67;;
48861;SDS011;34681;49.188;-0.374;2023-05-29T12:32:47;24.50;;;6.43;;
48861;SDS011;34681;49.188;-0.374;2023-05-29T12:35:20;21.50;;;6.97;;
48861;SDS011;34681;49.188;-0.374;2023-05-29T12:37:55;20.53;;;6.77;;
48861;SDS011;34681;49.188;-0.374;2023-05-29T12:40:22;28.30;;;7.17;;
48861;SDS011;34681;49.188;-0.374;2023-05-29T12:42:52;25.23;;;7.60;;
48861;SDS011;34681;49.188;-0.374;2023-05-29T12:45:25;19.03;;;5.90;;
48861;SDS011;34681;49.188;-0.374;2023-05-29T12:47:53;19.00;;;6.60;;
48861;SDS011;34681;49.188;-0.374;2023-05-29T12:52:58;34.87;;;7.70;;
48861;SDS011;34681;49.188;-0.374;2023-05-29T12:55:30;25.20;;;7.77;;
48861;SDS011;34681;49.188;-0.374;2023-05-29T12:57:58;18.50;;;6.90;;
48861;SDS011;34681;49.188;-0.374;2023-05-29T13:00:24;22.93;;;6.67;;
48861;SDS011;34681;49.188;-0.374;2023-05-29T13:02:49;23.23;;;7.60;;
48861;SDS011;34681;49.188;-0.374;2023-05-29T13:05:15;26.57;;;7.13;;
48861;SDS011;34681;49.188;-0.374;2023-05-29T13:07:41;18.93;;;7.50;;
48861;SDS011;34681;49.188;-0.374;2023-05-29T13:10:08;21.20;;;6.83;;
48861;SDS011;34681;49.188;-0.374;2023-05-29T13:12:34;15.80;;;6.10;;
48861;SDS011;34681;49.188;-0.374;2023-05-29T13:15:00;23.43;;;7.07;;
48861;SDS011;34681;49.188;-0.374;2023-05-29T13:17:25;21.83;;;7.30;;
48861;SDS011;34681;49.188;-0.374;2023-05-29T13:19:51;23.97;;;7.17;;
48861;SDS011;34681;49.188;-0.374;2023-05-29T13:22:16;24.03;;;7.40;;
48861;SDS011;34681;49.188;-0.374;2023-05-29T13:24:41;18.63;;;6.77;;
48861;SDS011;34681;49.188;-0.374;2023-05-29T13:27:07;16.90;;;5.90;;
48861;SDS011;34681;49.188;-0.374;2023-05-29T13:29:32;21.70;;;7.40;;
48861;SDS011;34681;49.188;-0.374;2023-05-29T13:31:59;20.77;;;6.80;;
48861;SDS011;34681;49.188;-0.374;2023-05-29T13:34:25;30.80;;;7.03;;
48861;SDS011;34681;49.188;-0.374;2023-05-29T13:36:56;26.07;;;8.40;;
48861;SDS011;34681;49.188;-0.374;2023-05-29T13:39:21;23.83;;;7.80;;
48861;SDS011;34681;49.188;-0.374;2023-05-29T13:41:47;21.57;;;6.47;;
48861;SDS011;34681;49.188;-0.374;2023-05-29T13:44:12;22.50;;;6.63;;
48861;SDS011;34681;49.188;-0.374;2023-05-29T13:46:38;25.87;;;7.40;;
48861;SDS011;34681;49.188;-0.374;2023-05-29T13:49:03;29.63;;;7.67;;
48861;SDS011;34681;49.188;-0.374;2023-05-29T13:51:28;21.80;;;7.33;;
48861;SDS011;34681;49.188;-0.374;2023-05-29T13:53:54;28.57;;;7.23;;
48861;SDS011;34681;49.188;-0.374;2023-05-29T13:56:19;27.87;;;7.53;;
48861;SDS011;34681;49.188;-0.374;2023-05-29T13:58:45;21.47;;;8.20;;
48861;SDS011;34681;49.188;-0.374;2023-05-29T14:01:10;17.47;;;6.77;;
48861;SDS011;34681;49.188;-0.374;2023-05-29T14:03:36;21.53;;;7.27;;
48861;SDS011;34681;49.188;-0.374;2023-05-29T14:06:01;21.67;;;7.73;;
48861;SDS011;34681;49.188;-0.374;2023-05-29T14:08:30;23.63;;;7.00;;
48861;SDS011;34681;49.188;-0.374;2023-05-29T14:10:55;18.30;;;6.20;;
48861;SDS011;34681;49.188;-0.374;2023-05-29T14:13:20;17.47;;;7.00;;
48861;SDS011;34681;49.188;-0.374;2023-05-29T14:15:46;20.67;;;7.20;;
48861;SDS011;34681;49.188;-0.374;2023-05-29T14:18:11;18.47;;;5.87;;
48861;SDS011;34681;49.188;-0.374;2023-05-29T14:20:36;15.40;;;6.57;;
48861;SDS011;34681;49.188;-0.374;2023-05-29T14:23:02;24.97;;;7.10;;
48861;SDS011;34681;49.188;-0.374;2023-05-29T14:25:27;25.27;;;7.00;;
48861;SDS011;34681;49.188;-0.374;2023-05-29T14:27:52;21.20;;;6.80;;
48861;SDS011;34681;49.188;-0.374;2023-05-29T14:30:18;23.63;;;7.07;;
48861;SDS011;34681;49.188;-0.374;2023-05-29T14:32:43;23.77;;;6.40;;
48861;SDS011;34681;49.188;-0.374;2023-05-29T14:35:09;18.10;;;8.00;;